sensor_id;sensor_type;location;lat;lon;timestamp;P1;durP1;ratioP1;P2;durP2;ratioP2
40595;SDS011;26304;48.794;9.820;2023-08-01T00:00:05;3.60;;;3.30;;
40595;SDS011;26304;48.794;9.820;2023-08-01T00:05:50;3.40;;;3.10;;
40595;SDS011;26304;48.794;9.820;2023-08-01T00:11:33;3.50;;;3.20;;
40595;SDS011;26304;48.794;9.820;2023-08-01T00:17:15;3.40;;;3.08;;
40595;SDS011;26304;48.794;9.820;2023-08-01T00:22:59;3.15;;;2.78;;
40595;SDS011;26304;48.794;9.820;2023-08-01T00:28:41;3.90;;;3.50;;
40595;SDS011;26304;48.794;9.820;2023-08-01T00:34:23;3.50;;;3.00;;
40595;SDS011;26304;48.794;9.820;2023-08-01T00:40:08;3.55;;;2.83;;
40595;SDS011;26304;48.794;9.820;2023-08-01T00:45:51;3.63;;;2.95;;
40595;SDS011;26304;48.794;9.820;2023-08-01T00:51:35;3.30;;;3.00;;
40595;SDS011;26304;48.794;9.820;2023-08-01T00:57:19;4.03;;;3.63;;
40595;SDS011;26304;48.794;9.820;2023-08-01T01:03:01;3.95;;;3.38;;
40595;SDS011;26304;48.794;9.820;2023-08-01T01:08:44;3.33;;;3.03;;
40595;SDS011;26304;48.794;9.820;2023-08-01T01:14:28;3.50;;;3.20;;
40595;SDS011;26304;48.794;9.820;2023-08-01T01:20:11;3.83;;;3.40;;
40595;SDS011;26304;48.794;9.820;2023-08-01T01:25:55;3.50;;;3.20;;
40595;SDS011;26304;48.794;9.820;2023-08-01T01:31:39;10.73;;;9.82;;
40595;SDS011;26304;48.794;9.820;2023-08-01T01:37:22;6.55;;;5.82;;
40595;SDS011;26304;48.794;9.820;2023-08-01T01:43:06;4.32;;;3.95;;
40595;SDS011;26304;48.794;9.820;2023-08-01T01:48:48;6.43;;;5.82;;
40595;SDS011;26304;48.794;9.820;2023-08-01T01:54:31;5.88;;;5.28;;
40595;SDS011;26304;48.794;9.820;2023-08-01T02:00:15;3.80;;;3.50;;
40595;SDS011;26304;48.794;9.820;2023-08-01T02:05:57;3.53;;;3.22;;
40595;SDS011;26304;48.794;9.820;2023-08-01T02:11:40;4.35;;;3.70;;
40595;SDS011;26304;48.794;9.820;2023-08-01T02:17:23;6.00;;;4.13;;
40595;SDS011;26304;48.794;9.820;2023-08-01T02:23:06;3.88;;;3.50;;
40595;SDS011;26304;48.794;9.820;2023-08-01T02:28:48;3.60;;;3.30;;
40595;SDS011;26304;48.794;9.820;2023-08-01T02:34:32;3.40;;;3.10;;
40595;SDS011;26304;48.794;9.820;2023-08-01T02:40:15;3.67;;;3.38;;
40595;SDS011;26304;48.794;9.820;2023-08-01T02:45:57;3.70;;;3.40;;
40595;SDS011;26304;48.794;9.820;2023-08-01T02:51:42;3.92;;;3.53;;
40595;SDS011;26304;48.794;9.820;2023-08-01T02:57:24;4.20;;;3.78;;
40595;SDS011;26304;48.794;9.820;2023-08-01T03:03:07;3.83;;;3.53;;
40595;SDS011;26304;48.794;9.820;2023-08-01T03:08:50;4.10;;;3.70;;
40595;SDS011;26304;48.794;9.820;2023-08-01T03:14:33;4.03;;;3.60;;
40595;SDS011;26304;48.794;9.820;2023-08-01T03:20:15;4.32;;;3.50;;
40595;SDS011;26304;48.794;9.820;2023-08-01T03:25:59;4.28;;;3.40;;
40595;SDS011;26304;48.794;9.820;2023-08-01T03:31:41;4.13;;;3.25;;
40595;SDS011;26304;48.794;9.820;2023-08-01T03:37:24;3.70;;;3.30;;
40595;SDS011;26304;48.794;9.820;2023-08-01T03:43:07;4.07;;;3.33;;
40595;SDS011;26304;48.794;9.820;2023-08-01T03:48:51;4.20;;;3.80;;
40595;SDS011;26304;48.794;9.820;2023-08-01T03:54:33;5.50;;;3.58;;
40595;SDS011;26304;48.794;9.820;2023-08-01T04:00:18;5.10;;;3.25;;
40595;SDS011;26304;48.794;9.820;2023-08-01T04:06:00;3.75;;;3.45;;
40595;SDS011;26304;48.794;9.820;2023-08-01T04:11:43;3.40;;;3.10;;
40595;SDS011;26304;48.794;9.820;2023-08-01T04:17:26;3.67;;;3.35;;
40595;SDS011;26304;48.794;9.820;2023-08-01T04:23:10;3.83;;;3.53;;
40595;SDS011;26304;48.794;9.820;2023-08-01T04:28:52;3.47;;;3.03;;
40595;SDS011;26304;48.794;9.820;2023-08-01T04:34:36;3.50;;;3.20;;
40595;SDS011;26304;48.794;9.820;2023-08-01T04:40:19;3.85;;;3.30;;
40595;SDS011;26304;48.794;9.820;2023-08-01T04:46:04;3.47;;;3.17;;
40595;SDS011;26304;48.794;9.820;2023-08-01T04:51:49;3.35;;;3.05;;
40595;SDS011;26304;48.794;9.820;2023-08-01T04:57:32;4.05;;;3.33;;
40595;SDS011;26304;48.794;9.820;2023-08-01T05:03:14;4.05;;;3.13;;
40595;SDS011;26304;48.794;9.820;2023-08-01T05:08:58;4.95;;;3.67;;
40595;SDS011;26304;48.794;9.820;2023-08-01T05:14:40;5.93;;;3.13;;
40595;SDS011;26304;48.794;9.820;2023-08-01T05:20:23;5.38;;;3.58;;
40595;SDS011;26304;48.794;9.820;2023-08-01T05:26:12;5.10;;;3.55;;
40595;SDS011;26304;48.794;9.820;2023-08-01T05:31:55;4.38;;;3.25;;
40595;SDS011;26304;48.794;9.820;2023-08-01T05:37:37;4.10;;;3.03;;
40595;SDS011;26304;48.794;9.820;2023-08-01T05:43:21;4.30;;;3.40;;
40595;SDS011;26304;48.794;9.820;2023-08-01T05:49:03;3.85;;;3.05;;
40595;SDS011;26304;48.794;9.820;2023-08-01T05:54:46;4.65;;;3.08;;
40595;SDS011;26304;48.794;9.820;2023-08-01T06:00:29;4.70;;;3.22;;
40595;SDS011;26304;48.794;9.820;2023-08-01T06:06:12;5.43;;;3.10;;
40595;SDS011;26304;48.794;9.820;2023-08-01T06:11:54;3.30;;;3.00;;
40595;SDS011;26304;48.794;9.820;2023-08-01T06:17:38;4.68;;;3.17;;
40595;SDS011;26304;48.794;9.820;2023-08-01T06:23:20;3.35;;;3.05;;
40595;SDS011;26304;48.794;9.820;2023-08-01T06:29:03;3.33;;;2.50;;
40595;SDS011;26304;48.794;9.820;2023-08-01T06:34:47;3.03;;;2.78;;
40595;SDS011;26304;48.794;9.820;2023-08-01T06:40:29;4.47;;;2.88;;
40595;SDS011;26304;48.794;9.820;2023-08-01T06:46:11;3.42;;;3.10;;
40595;SDS011;26304;48.794;9.820;2023-08-01T06:51:55;4.68;;;3.20;;
40595;SDS011;26304;48.794;9.820;2023-08-01T06:57:38;3.40;;;3.10;;
40595;SDS011;26304;48.794;9.820;2023-08-01T07:03:20;3.70;;;2.85;;
40595;SDS011;26304;48.794;9.820;2023-08-01T07:09:04;4.70;;;3.10;;
40595;SDS011;26304;48.794;9.820;2023-08-01T07:14:46;3.90;;;3.28;;
40595;SDS011;26304;48.794;9.820;2023-08-01T07:20:29;4.10;;;3.38;;
40595;SDS011;26304;48.794;9.820;2023-08-01T07:26:13;4.68;;;3.35;;
40595;SDS011;26304;48.794;9.820;2023-08-01T07:31:55;3.40;;;3.10;;
40595;SDS011;26304;48.794;9.820;2023-08-01T07:37:38;3.30;;;3.00;;
40595;SDS011;26304;48.794;9.820;2023-08-01T07:43:22;5.10;;;3.60;;
40595;SDS011;26304;48.794;9.820;2023-08-01T07:49:05;3.70;;;3.40;;
40595;SDS011;26304;48.794;9.820;2023-08-01T07:54:47;4.85;;;3.40;;
40595;SDS011;26304;48.794;9.820;2023-08-01T08:00:31;4.38;;;3.88;;
40595;SDS011;26304;48.794;9.820;2023-08-01T08:06:13;4.57;;;4.07;;
40595;SDS011;26304;48.794;9.820;2023-08-01T08:11:56;3.70;;;3.25;;
40595;SDS011;26304;48.794;9.820;2023-08-01T08:17:40;5.20;;;4.10;;
40595;SDS011;26304;48.794;9.820;2023-08-01T08:23:23;5.00;;;4.18;;
40595;SDS011;26304;48.794;9.820;2023-08-01T08:29:05;4.43;;;3.70;;
40595;SDS011;26304;48.794;9.820;2023-08-01T08:34:49;4.88;;;4.35;;
40595;SDS011;26304;48.794;9.820;2023-08-01T08:40:31;4.97;;;4.07;;
40595;SDS011;26304;48.794;9.820;2023-08-01T08:46:15;4.10;;;3.70;;
40595;SDS011;26304;48.794;9.820;2023-08-01T08:51:59;5.05;;;4.55;;
40595;SDS011;26304;48.794;9.820;2023-08-01T08:57:44;4.55;;;4.00;;
40595;SDS011;26304;48.794;9.820;2023-08-01T09:03:31;4.60;;;3.83;;
40595;SDS011;26304;48.794;9.820;2023-08-01T09:09:15;4.35;;;3.95;;
40595;SDS011;26304;48.794;9.820;2023-08-01T09:14:59;4.40;;;4.00;;
40595;SDS011;26304;48.794;9.820;2023-08-01T09:20:42;3.80;;;3.47;;
40595;SDS011;26304;48.794;9.820;2023-08-01T09:26:26;3.65;;;3.35;;
40595;SDS011;26304;48.794;9.820;2023-08-01T09:32:12;3.67;;;3.38;;
40595;SDS011;26304;48.794;9.820;2023-08-01T09:37:55;4.40;;;4.00;;
40595;SDS011;26304;48.794;9.820;2023-08-01T09:43:44;5.43;;;4.03;;
40595;SDS011;26304;48.794;9.820;2023-08-01T09:49:28;8.40;;;4.28;;
40595;SDS011;26304;48.794;9.820;2023-08-01T09:55:11;4.40;;;3.30;;
40595;SDS011;26304;48.794;9.820;2023-08-01T10:00:54;7.47;;;4.25;;
40595;SDS011;26304;48.794;9.820;2023-08-01T10:06:37;3.30;;;3.00;;
40595;SDS011;26304;48.794;9.820;2023-08-01T10:12:24;3.95;;;3.08;;
40595;SDS011;26304;48.794;9.820;2023-08-01T10:18:09;2.95;;;2.65;;
40595;SDS011;26304;48.794;9.820;2023-08-01T10:23:52;3.90;;;2.72;;
40595;SDS011;26304;48.794;9.820;2023-08-01T10:29:36;3.20;;;2.63;;
40595;SDS011;26304;48.794;9.820;2023-08-01T10:35:20;3.22;;;2.50;;
40595;SDS011;26304;48.794;9.820;2023-08-01T10:41:20;2.67;;;2.17;;
40595;SDS011;26304;48.794;9.820;2023-08-01T10:47:04;2.67;;;2.47;;
40595;SDS011;26304;48.794;9.820;2023-08-01T10:52:49;2.05;;;1.92;;
40595;SDS011;26304;48.794;9.820;2023-08-01T10:58:32;2.00;;;1.80;;
40595;SDS011;26304;48.794;9.820;2023-08-01T11:04:15;3.40;;;2.05;;
40595;SDS011;26304;48.794;9.820;2023-08-01T11:10:06;1.75;;;1.65;;
40595;SDS011;26304;48.794;9.820;2023-08-01T11:15:50;1.80;;;1.70;;
40595;SDS011;26304;48.794;9.820;2023-08-01T11:21:34;1.92;;;1.48;;
40595;SDS011;26304;48.794;9.820;2023-08-01T11:27:18;1.70;;;1.60;;
40595;SDS011;26304;48.794;9.820;2023-08-01T11:33:01;1.50;;;1.40;;
40595;SDS011;26304;48.794;9.820;2023-08-01T11:38:45;1.60;;;1.50;;
40595;SDS011;26304;48.794;9.820;2023-08-01T11:44:29;1.42;;;1.00;;
40595;SDS011;26304;48.794;9.820;2023-08-01T11:50:11;1.88;;;1.00;;
40595;SDS011;26304;48.794;9.820;2023-08-01T11:55:54;1.98;;;0.80;;
40595;SDS011;26304;48.794;9.820;2023-08-01T12:01:39;1.92;;;0.90;;
40595;SDS011;26304;48.794;9.820;2023-08-01T12:07:24;0.80;;;0.80;;
40595;SDS011;26304;48.794;9.820;2023-08-01T12:13:18;0.95;;;0.80;;
40595;SDS011;26304;48.794;9.820;2023-08-01T12:19:03;1.02;;;0.88;;
40595;SDS011;26304;48.794;9.820;2023-08-01T12:24:45;1.40;;;0.90;;
40595;SDS011;26304;48.794;9.820;2023-08-01T12:30:27;2.55;;;0.80;;
40595;SDS011;26304;48.794;9.820;2023-08-01T12:36:11;1.05;;;1.00;;
40595;SDS011;26304;48.794;9.820;2023-08-01T12:41:53;1.10;;;1.00;;
40595;SDS011;26304;48.794;9.820;2023-08-01T12:47:36;1.13;;;0.98;;
40595;SDS011;26304;48.794;9.820;2023-08-01T12:53:20;1.17;;;0.95;;
40595;SDS011;26304;48.794;9.820;2023-08-01T12:59:03;0.90;;;0.90;;
40595;SDS011;26304;48.794;9.820;2023-08-01T13:04:45;1.50;;;1.20;;
40595;SDS011;26304;48.794;9.820;2023-08-01T13:10:30;2.60;;;1.38;;
40595;SDS011;26304;48.794;9.820;2023-08-01T13:16:13;1.25;;;1.15;;
40595;SDS011;26304;48.794;9.820;2023-08-01T13:21:56;1.10;;;1.00;;
40595;SDS011;26304;48.794;9.820;2023-08-01T13:27:40;2.38;;;1.20;;
40595;SDS011;26304;48.794;9.820;2023-08-01T13:33:22;2.72;;;1.23;;
40595;SDS011;26304;48.794;9.820;2023-08-01T13:39:04;1.30;;;1.05;;
40595;SDS011;26304;48.794;9.820;2023-08-01T13:44:48;1.75;;;1.00;;
40595;SDS011;26304;48.794;9.820;2023-08-01T13:50:31;1.17;;;1.13;;
40595;SDS011;26304;48.794;9.820;2023-08-01T13:56:13;1.80;;;1.15;;
40595;SDS011;26304;48.794;9.820;2023-08-01T14:01:57;0.98;;;0.90;;
40595;SDS011;26304;48.794;9.820;2023-08-01T14:07:39;2.25;;;1.20;;
40595;SDS011;26304;48.794;9.820;2023-08-01T14:13:22;1.30;;;1.20;;
40595;SDS011;26304;48.794;9.820;2023-08-01T14:19:06;1.92;;;1.10;;
40595;SDS011;26304;48.794;9.820;2023-08-01T14:24:48;2.03;;;1.30;;
40595;SDS011;26304;48.794;9.820;2023-08-01T14:30:31;1.52;;;1.20;;
40595;SDS011;26304;48.794;9.820;2023-08-01T14:36:14;1.85;;;1.48;;
40595;SDS011;26304;48.794;9.820;2023-08-01T14:41:57;1.25;;;1.15;;
40595;SDS011;26304;48.794;9.820;2023-08-01T14:47:39;1.30;;;1.20;;
40595;SDS011;26304;48.794;9.820;2023-08-01T14:53:24;1.95;;;1.60;;
40595;SDS011;26304;48.794;9.820;2023-08-01T14:59:06;4.25;;;1.50;;
40595;SDS011;26304;48.794;9.820;2023-08-01T15:04:50;1.30;;;1.20;;
40595;SDS011;26304;48.794;9.820;2023-08-01T15:10:37;2.25;;;1.33;;
40595;SDS011;26304;48.794;9.820;2023-08-01T15:16:19;4.15;;;1.50;;
40595;SDS011;26304;48.794;9.820;2023-08-01T15:22:02;4.07;;;1.30;;
40595;SDS011;26304;48.794;9.820;2023-08-01T15:27:46;1.80;;;1.27;;
40595;SDS011;26304;48.794;9.820;2023-08-01T15:33:29;1.08;;;1.00;;
40595;SDS011;26304;48.794;9.820;2023-08-01T15:39:13;2.20;;;1.30;;
40595;SDS011;26304;48.794;9.820;2023-08-01T15:44:57;1.25;;;1.15;;
40595;SDS011;26304;48.794;9.820;2023-08-01T15:50:39;1.35;;;1.20;;
40595;SDS011;26304;48.794;9.820;2023-08-01T15:56:22;2.30;;;1.17;;
40595;SDS011;26304;48.794;9.820;2023-08-01T16:02:06;3.08;;;1.30;;
40595;SDS011;26304;48.794;9.820;2023-08-01T16:07:49;1.25;;;1.15;;
40595;SDS011;26304;48.794;9.820;2023-08-01T16:13:31;2.28;;;1.60;;
40595;SDS011;26304;48.794;9.820;2023-08-01T16:19:15;1.95;;;1.20;;
40595;SDS011;26304;48.794;9.820;2023-08-01T16:24:57;1.55;;;1.30;;
40595;SDS011;26304;48.794;9.820;2023-08-01T16:30:40;2.90;;;1.42;;
40595;SDS011;26304;48.794;9.820;2023-08-01T16:36:24;2.28;;;1.55;;
40595;SDS011;26304;48.794;9.820;2023-08-01T16:42:06;2.78;;;1.48;;
40595;SDS011;26304;48.794;9.820;2023-08-01T16:47:48;1.65;;;1.20;;
40595;SDS011;26304;48.794;9.820;2023-08-01T16:53:32;2.25;;;1.55;;
40595;SDS011;26304;48.794;9.820;2023-08-01T16:59:14;2.58;;;1.13;;
40595;SDS011;26304;48.794;9.820;2023-08-01T17:04:57;2.03;;;1.33;;
40595;SDS011;26304;48.794;9.820;2023-08-01T17:10:41;1.60;;;1.30;;
40595;SDS011;26304;48.794;9.820;2023-08-01T17:16:23;2.70;;;1.20;;
40595;SDS011;26304;48.794;9.820;2023-08-01T17:22:06;3.05;;;1.40;;
40595;SDS011;26304;48.794;9.820;2023-08-01T17:27:51;2.50;;;1.52;;
40595;SDS011;26304;48.794;9.820;2023-08-01T17:33:34;2.08;;;1.17;;
40595;SDS011;26304;48.794;9.820;2023-08-01T17:39:16;2.00;;;1.10;;
40595;SDS011;26304;48.794;9.820;2023-08-01T17:45:00;1.55;;;1.30;;
40595;SDS011;26304;48.794;9.820;2023-08-01T17:50:43;1.70;;;1.20;;
40595;SDS011;26304;48.794;9.820;2023-08-01T17:56:25;1.67;;;1.25;;
40595;SDS011;26304;48.794;9.820;2023-08-01T18:02:09;1.48;;;1.38;;
40595;SDS011;26304;48.794;9.820;2023-08-01T18:07:51;1.35;;;1.25;;
40595;SDS011;26304;48.794;9.820;2023-08-01T18:13:34;3.50;;;1.30;;
40595;SDS011;26304;48.794;9.820;2023-08-01T18:19:18;1.73;;;1.20;;
40595;SDS011;26304;48.794;9.820;2023-08-01T18:25:00;1.45;;;1.10;;
40595;SDS011;26304;48.794;9.820;2023-08-01T18:30:42;3.08;;;1.58;;
40595;SDS011;26304;48.794;9.820;2023-08-01T18:36:26;1.75;;;1.55;;
40595;SDS011;26304;48.794;9.820;2023-08-01T18:42:09;1.60;;;1.50;;
40595;SDS011;26304;48.794;9.820;2023-08-01T18:47:51;2.85;;;1.40;;
40595;SDS011;26304;48.794;9.820;2023-08-01T18:53:36;2.45;;;1.83;;
40595;SDS011;26304;48.794;9.820;2023-08-01T18:59:19;7.07;;;3.40;;
40595;SDS011;26304;48.794;9.820;2023-08-01T19:05:03;6.78;;;2.78;;
40595;SDS011;26304;48.794;9.820;2023-08-01T19:10:49;5.05;;;2.28;;
40595;SDS011;26304;48.794;9.820;2023-08-01T19:16:31;4.45;;;2.22;;
40595;SDS011;26304;48.794;9.820;2023-08-01T19:22:14;4.13;;;1.77;;
40595;SDS011;26304;48.794;9.820;2023-08-01T19:27:57;2.75;;;1.55;;
40595;SDS011;26304;48.794;9.820;2023-08-01T19:33:40;8.05;;;1.90;;
40595;SDS011;26304;48.794;9.820;2023-08-01T19:39:22;1.60;;;1.50;;
40595;SDS011;26304;48.794;9.820;2023-08-01T19:45:09;2.08;;;1.88;;
40595;SDS011;26304;48.794;9.820;2023-08-01T19:50:52;2.35;;;1.15;;
40595;SDS011;26304;48.794;9.820;2023-08-01T19:56:35;1.83;;;1.33;;
40595;SDS011;26304;48.794;9.820;2023-08-01T20:02:19;3.28;;;1.83;;
40595;SDS011;26304;48.794;9.820;2023-08-01T20:08:02;2.95;;;1.35;;
40595;SDS011;26304;48.794;9.820;2023-08-01T20:13:44;4.07;;;1.48;;
40595;SDS011;26304;48.794;9.820;2023-08-01T20:19:28;1.73;;;1.38;;
40595;SDS011;26304;48.794;9.820;2023-08-01T20:25:10;1.60;;;1.50;;
40595;SDS011;26304;48.794;9.820;2023-08-01T20:30:53;2.47;;;1.50;;
40595;SDS011;26304;48.794;9.820;2023-08-01T20:36:37;2.95;;;1.33;;
40595;SDS011;26304;48.794;9.820;2023-08-01T20:42:19;2.28;;;1.60;;
40595;SDS011;26304;48.794;9.820;2023-08-01T20:48:01;1.80;;;1.17;;
40595;SDS011;26304;48.794;9.820;2023-08-01T20:53:45;1.73;;;1.55;;
40595;SDS011;26304;48.794;9.820;2023-08-01T20:59:27;1.80;;;1.70;;
40595;SDS011;26304;48.794;9.820;2023-08-01T21:05:11;2.60;;;1.33;;
40595;SDS011;26304;48.794;9.820;2023-08-01T21:10:55;1.58;;;1.40;;
40595;SDS011;26304;48.794;9.820;2023-08-01T21:16:37;2.28;;;1.80;;
40595;SDS011;26304;48.794;9.820;2023-08-01T21:22:20;1.95;;;1.60;;
40595;SDS011;26304;48.794;9.820;2023-08-01T21:28:04;2.03;;;1.52;;
40595;SDS011;26304;48.794;9.820;2023-08-01T21:33:46;2.08;;;1.42;;
40595;SDS011;26304;48.794;9.820;2023-08-01T21:39:29;1.95;;;1.20;;
40595;SDS011;26304;48.794;9.820;2023-08-01T21:45:12;1.58;;;1.20;;
40595;SDS011;26304;48.794;9.820;2023-08-01T21:50:57;1.77;;;1.40;;
40595;SDS011;26304;48.794;9.820;2023-08-01T21:56:39;1.52;;;1.20;;
40595;SDS011;26304;48.794;9.820;2023-08-01T22:02:23;1.45;;;1.35;;
40595;SDS011;26304;48.794;9.820;2023-08-01T22:08:05;1.63;;;1.30;;
40595;SDS011;26304;48.794;9.820;2023-08-01T22:13:48;1.92;;;1.73;;
40595;SDS011;26304;48.794;9.820;2023-08-01T22:19:32;2.05;;;1.70;;
40595;SDS011;26304;48.794;9.820;2023-08-01T22:25:15;3.22;;;1.42;;
40595;SDS011;26304;48.794;9.820;2023-08-01T22:30:58;1.95;;;1.27;;
40595;SDS011;26304;48.794;9.820;2023-08-01T22:36:43;1.45;;;1.35;;
40595;SDS011;26304;48.794;9.820;2023-08-01T22:42:26;1.83;;;1.20;;
40595;SDS011;26304;48.794;9.820;2023-08-01T22:48:09;1.45;;;1.25;;
40595;SDS011;26304;48.794;9.820;2023-08-01T22:53:53;1.40;;;1.30;;
40595;SDS011;26304;48.794;9.820;2023-08-01T22:59:35;1.83;;;1.60;;
40595;SDS011;26304;48.794;9.820;2023-08-01T23:05:17;1.73;;;1.50;;
40595;SDS011;26304;48.794;9.820;2023-08-01T23:11:02;3.90;;;1.50;;
40595;SDS011;26304;48.794;9.820;2023-08-01T23:16:45;2.55;;;1.70;;
40595;SDS011;26304;48.794;9.820;2023-08-01T23:22:27;1.40;;;1.30;;
40595;SDS011;26304;48.794;9.820;2023-08-01T23:28:11;2.63;;;1.65;;
40595;SDS011;26304;48.794;9.820;2023-08-01T23:33:53;1.50;;;1.40;;
40595;SDS011;26304;48.794;9.820;2023-08-01T23:39:36;2.05;;;1.33;;
40595;SDS011;26304;48.794;9.820;2023-08-01T23:45:19;1.58;;;1.30;;
40595;SDS011;26304;48.794;9.820;2023-08-01T23:51:02;1.92;;;1.38;;
40595;SDS011;26304;48.794;9.820;2023-08-01T23:56:44;2.05;;;1.55;;
